Time,TemperatureF,DewpointF,PressureIn,WindDirection,WindDirectionDegrees,WindSpeedMPH,WindSpeedGustMPH,Humidity,HourlyPrecipIn,Conditions,Clouds,dailyrainin,SoftwareType,DateUTC
2013-01-03 00:02:00,34.7,25.9,29.00,SW,225,0.0,0.0,70,0.00,CLR,CLR,0.00,WeatherDisplay:10.37,2013-01-03 06:02:00,
2013-01-03 00:07:00,34.7,25.6,29.00,WSW,248,0.0,0.0,69,0.00,CLR,CLR,0.00,WeatherDisplay:10.37,2013-01-03 06:07:00,
2013-01-03 00:12:00,34.5,25.4,29.00,SW,225,0.0,0.0,69,0.00,CLR,CLR,0.00,WeatherDisplay:10.37,2013-01-03 06:12:00,
2013-01-03 00:17:00,34.5,25.4,29.00,SW,225,0.0,0.0,69,0.00,CLR,CLR,0.00,WeatherDisplay:10.37,2013-01-03 06:17:00,
2013-01-03 00:22:00,34.5,25.4,29.00,SW,225,0.0,0.0,69,0.00,CLR,CLR,0.00,WeatherDisplay:10.37,2013-01-03 06:22:00,
2013-01-03 00:27:00,34.3,25.2,29.00,SW,225,0.0,0.0,69,0.00,CLR,CLR,0.00,WeatherDisplay:10.37,2013-01-03 06:27:00,
2013-01-03 00:32:00,34.3,25.2,29.00,SW,225,0.0,0.0,69,0.00,CLR,CLR,0.00,WeatherDisplay:10.37,2013-01-03 06:32:00,
2013-01-03 00:37:00,34.3,24.9,29.00,SW,225,0.0,0.0,68,0.00,CLR,CLR,0.00,WeatherDisplay:10.37,2013-01-03 06:37:00,
2013-01-03 00:42:00,34.3,24.9,29.00,SW,225,0.0,0.0,68,0.00,CLR,CLR,0.00,WeatherDisplay:10.37,2013-01-03 06:42:00,
2013-01-03 00:47:00,34.3,24.9,29.03,SW,225,0.0,0.0,68,0.00,CLR,CLR,0.00,WeatherDisplay:10.37,2013-01-03 06:47:00,
2013-01-03 00:52:00,34.2,24.7,29.03,SW,225,0.0,0.0,68,0.00,CLR,CLR,0.00,WeatherDisplay:10.37,2013-01-03 06:52:00,
2013-01-03 00:57:00,34.2,24.7,29.03,SW,225,0.0,0.0,68,0.00,CLR,CLR,0.00,WeatherDisplay:10.37,2013-01-03 06:57:00,
2013-01-03 01:02:00,34.2,24.7,29.03,West,270,0.0,0.0,68,0.00,CLR,CLR,0.00,WeatherDisplay:10.37,2013-01-03 07:02:00,
2013-01-03 01:07:00,34.2,24.7,29.03,West,270,0.0,0.0,68,0.00,CLR,CLR,0.00,WeatherDisplay:10.37,2013-01-03 07:07:00,
2013-01-03 01:12:00,34.2,24.3,29.03,SW,225,0.0,0.0,67,0.00,CLR,CLR,0.00,WeatherDisplay:10.37,2013-01-03 07:12:00,
2013-01-03 01:17:00,34.0,24.2,29.03,SW,225,0.0,0.0,67,0.00,CLR,CLR,0.00,WeatherDisplay:10.37,2013-01-03 07:17:00,
2013-01-03 01:22:00,34.0,23.8,29.03,WNW,292,0.0,0.0,66,0.00,CLR,CLR,0.00,WeatherDisplay:10.37,2013-01-03 07:22:00,
2013-01-03 01:27:00,34.0,23.8,29.03,WSW,248,0.0,0.0,66,0.00,CLR,CLR,0.00,WeatherDisplay:10.37,2013-01-03 07:27:00,
2013-01-03 01:32:00,33.8,23.6,29.03,SW,225,0.0,0.0,66,0.00,CLR,CLR,0.00,WeatherDisplay:10.37,2013-01-03 07:32:00,
2013-01-03 01:37:00,33.6,23.1,29.03,West,270,0.0,0.0,65,0.00,CLR,CLR,0.00,WeatherDisplay:10.37,2013-01-03 07:37:00,
2013-01-03 01:42:00,33.6,23.1,29.03,West,270,0.0,0.0,65,0.00,CLR,CLR,0.00,WeatherDisplay:10.37,2013-01-03 07:42:00,
2013-01-03 01:47:00,33.6,23.1,29.03,West,270,0.0,0.0,65,0.00,CLR,CLR,0.00,WeatherDisplay:10.37,2013-01-03 07:47:00,
2013-01-03 01:52:00,33.4,22.9,29.03,WNW,292,0.0,0.0,65,0.00,CLR,CLR,0.00,WeatherDisplay:10.37,2013-01-03 07:52:00,
2013-01-03 01:57:00,33.3,22.8,29.03,West,270,3.5,0.0,65,0.00,CLR,CLR,0.00,WeatherDisplay:10.37,2013-01-03 07:57:00,
2013-01-03 02:02:00,33.3,22.4,29.03,West,270,0.0,0.0,64,0.00,CLR,CLR,0.00,WeatherDisplay:10.37,2013-01-03 08:02:00,
2013-01-03 02:08:00,33.1,22.2,29.03,West,270,0.0,0.0,64,0.00,CLR,CLR,0.00,WeatherDisplay:10.37,2013-01-03 08:08:00,
2013-01-03 02:13:00,33.1,22.2,29.03,West,270,0.0,0.0,64,0.00,CLR,CLR,0.00,WeatherDisplay:10.37,2013-01-03 08:13:00,
2013-01-03 02:18:00,33.1,22.2,29.03,West,270,0.0,0.0,64,0.00,CLR,CLR,0.00,WeatherDisplay:10.37,2013-01-03 08:18:00,
2013-01-03 02:23:00,33.1,22.2,29.03,West,270,0.0,0.0,64,0.00,CLR,CLR,0.00,WeatherDisplay:10.37,2013-01-03 08:23:00,
2013-01-03 02:28:00,33.1,22.2,29.03,WNW,292,0.0,0.0,64,0.00,CLR,CLR,0.00,WeatherDisplay:10.37,2013-01-03 08:28:00,
2013-01-03 02:33:00,32.9,21.7,29.03,West,270,0.0,0.0,63,0.00,CLR,CLR,0.00,WeatherDisplay:10.37,2013-01-03 08:33:00,
2013-01-03 02:39:00,32.5,21.0,29.03,West,270,0.0,0.0,62,0.00,CLR,CLR,0.00,WeatherDisplay:10.37,2013-01-03 08:39:00,
2013-01-03 02:44:00,32.5,21.0,29.03,West,270,0.0,0.0,62,0.00,CLR,CLR,0.00,WeatherDisplay:10.37,2013-01-03 08:44:00,
2013-01-03 02:49:00,32.2,20.2,29.06,WSW,248,0.0,0.0,61,0.00,CLR,CLR,0.00,WeatherDisplay:10.37,2013-01-03 08:49:00,
2013-01-03 02:54:00,32.0,20.1,29.06,NW,315,0.0,0.0,61,0.00,CLR,CLR,0.00,WeatherDisplay:10.37,2013-01-03 08:54:00,
2013-01-03 02:59:00,32.0,20.1,29.06,West,270,0.0,0.0,61,0.00,CLR,CLR,0.00,WeatherDisplay:10.37,2013-01-03 08:59:00,
2013-01-03 03:04:00,31.8,19.9,29.06,WNW,292,0.0,0.0,61,0.00,CLR,CLR,0.00,WeatherDisplay:10.37,2013-01-03 09:04:00,
2013-01-03 03:09:00,31.5,19.5,29.06,West,270,0.0,0.0,61,0.00,CLR,CLR,0.00,WeatherDisplay:10.37,2013-01-03 09:09:00,
2013-01-03 03:14:00,31.3,19.4,29.06,West,270,0.0,0.0,61,0.00,CLR,CLR,0.00,WeatherDisplay:10.37,2013-01-03 09:14:00,
2013-01-03 03:19:00,31.1,19.2,29.03,West,270,0.0,0.0,61,0.00,CLR,CLR,0.00,WeatherDisplay:10.37,2013-01-03 09:19:00,
2013-01-03 03:24:00,31.3,19.8,29.03,West,270,0.0,0.0,62,0.00,CLR,CLR,0.00,WeatherDisplay:10.37,2013-01-03 09:24:00,
2013-01-03 03:29:00,31.3,20.1,29.03,West,270,0.0,0.0,63,0.00,CLR,CLR,0.00,WeatherDisplay:10.37,2013-01-03 09:29:00,
2013-01-03 03:34:00,31.5,20.3,29.06,WNW,292,0.0,0.0,63,0.00,CLR,CLR,0.00,WeatherDisplay:10.37,2013-01-03 09:34:00,
2013-01-03 03:39:00,31.6,20.8,29.06,West,270,0.0,0.0,64,0.00,CLR,CLR,0.00,WeatherDisplay:10.37,2013-01-03 09:39:00,
2013-01-03 03:44:00,31.5,20.7,29.06,West,270,0.0,0.0,64,0.00,CLR,CLR,0.00,WeatherDisplay:10.37,2013-01-03 09:44:00,
2013-01-03 03:49:00,31.5,20.7,29.06,WSW,248,0.0,0.0,64,0.00,CLR,CLR,0.00,WeatherDisplay:10.37,2013-01-03 09:49:00,
2013-01-03 03:54:00,31.5,20.7,29.06,West,270,0.0,0.0,64,0.00,CLR,CLR,0.00,WeatherDisplay:10.37,2013-01-03 09:54:00,
2013-01-03 03:59:00,31.6,20.8,29.06,West,270,0.0,0.0,64,0.00,CLR,CLR,0.00,WeatherDisplay:10.37,2013-01-03 09:59:00,
2013-01-03 04:04:00,31.6,20.8,29.03,WNW,292,0.0,0.0,64,0.00,CLR,CLR,0.00,WeatherDisplay:10.37,2013-01-03 10:04:00,
2013-01-03 04:09:00,31.5,20.7,29.03,WSW,248,0.0,0.0,64,0.00,CLR,CLR,0.00,WeatherDisplay:10.37,2013-01-03 10:09:00,
2013-01-03 04:14:00,31.5,20.3,29.03,West,270,3.6,0.0,63,0.00,CLR,CLR,0.00,WeatherDisplay:10.37,2013-01-03 10:14:00,
2013-01-03 04:19:00,31.5,20.3,29.06,SW,225,0.0,0.0,63,0.00,CLR,CLR,0.00,WeatherDisplay:10.37,2013-01-03 10:19:00,
2013-01-03 04:24:00,31.5,20.3,29.06,West,270,2.3,0.0,63,0.00,CLR,CLR,0.00,WeatherDisplay:10.37,2013-01-03 10:24:00,
2013-01-03 04:29:00,31.5,20.3,29.06,WSW,248,0.0,0.0,63,0.00,CLR,CLR,0.00,WeatherDisplay:10.37,2013-01-03 10:29:00,
2013-01-03 04:34:00,31.5,20.3,29.06,WSW,248,0.0,0.0,63,0.00,CLR,CLR,0.00,WeatherDisplay:10.37,2013-01-03 10:34:00,
2013-01-03 04:39:00,31.5,20.3,29.06,WNW,292,0.0,0.0,63,0.00,CLR,CLR,0.00,WeatherDisplay:10.37,2013-01-03 10:39:00,
2013-01-03 04:44:00,31.5,20.3,29.06,West,270,0.0,0.0,63,0.00,CLR,CLR,0.00,WeatherDisplay:10.37,2013-01-03 10:44:00,
2013-01-03 04:49:00,31.5,20.3,29.06,West,270,0.0,0.0,63,0.00,CLR,CLR,0.00,WeatherDisplay:10.37,2013-01-03 10:49:00,
2013-01-03 04:54:00,31.3,20.1,29.06,West,270,0.0,0.0,63,0.00,CLR,CLR,0.00,WeatherDisplay:10.37,2013-01-03 10:54:00,
2013-01-03 04:59:00,31.3,19.8,29.06,West,270,0.0,0.0,62,0.00,CLR,CLR,0.00,WeatherDisplay:10.37,2013-01-03 10:59:00,
2013-01-03 05:05:00,31.3,20.1,29.06,West,270,0.0,0.0,63,0.00,CLR,CLR,0.00,WeatherDisplay:10.37,2013-01-03 11:05:00,
2013-01-03 05:10:00,31.5,20.3,29.06,West,270,0.0,0.0,63,0.00,CLR,CLR,0.00,WeatherDisplay:10.37,2013-01-03 11:10:00,
2013-01-03 05:15:00,31.5,20.3,29.06,WSW,248,0.0,0.0,63,0.00,CLR,CLR,0.00,WeatherDisplay:10.37,2013-01-03 11:15:00,
2013-01-03 05:21:00,31.5,20.3,29.06,SW,225,0.0,0.0,63,0.00,CLR,CLR,0.00,WeatherDisplay:10.37,2013-01-03 11:21:00,
2013-01-03 05:26:00,31.5,20.3,29.06,West,270,0.0,0.0,63,0.00,CLR,CLR,0.00,WeatherDisplay:10.37,2013-01-03 11:26:00,
2013-01-03 05:31:00,31.5,20.7,29.06,WSW,248,0.0,0.0,64,0.00,CLR,CLR,0.00,WeatherDisplay:10.37,2013-01-03 11:31:00,
2013-01-03 05:37:00,31.3,20.1,29.06,WNW,292,0.0,0.0,63,0.00,CLR,CLR,0.00,WeatherDisplay:10.37,2013-01-03 11:37:00,
2013-01-03 05:42:00,31.3,20.1,29.06,West,270,0.0,0.0,63,0.00,CLR,CLR,0.00,WeatherDisplay:10.37,2013-01-03 11:42:00,
2013-01-03 05:48:00,31.1,19.6,29.06,WSW,248,2.3,0.0,62,0.00,CLR,CLR,0.00,WeatherDisplay:10.37,2013-01-03 11:48:00,
2013-01-03 05:53:00,31.1,19.6,29.06,WSW,248,0.0,0.0,62,0.00,CLR,CLR,0.00,WeatherDisplay:10.37,2013-01-03 11:53:00,
2013-01-03 05:58:00,30.9,19.4,29.06,West,270,0.0,0.0,62,0.00,CLR,CLR,0.00,WeatherDisplay:10.37,2013-01-03 11:58:00,
2013-01-03 06:03:00,30.9,19.0,29.06,WNW,292,0.0,0.0,61,0.00,CLR,CLR,0.00,WeatherDisplay:10.37,2013-01-03 12:03:00,
2013-01-03 06:08:00,30.9,19.0,29.06,West,270,0.0,0.0,61,0.00,CLR,CLR,0.00,WeatherDisplay:10.37,2013-01-03 12:08:00,
2013-01-03 06:13:00,30.7,18.9,29.06,West,270,0.0,0.0,61,0.00,CLR,CLR,0.00,WeatherDisplay:10.37,2013-01-03 12:13:00,
2013-01-03 06:18:00,30.7,18.9,29.09,West,270,0.0,0.0,61,0.00,CLR,CLR,0.00,WeatherDisplay:10.37,2013-01-03 12:18:00,
2013-01-03 06:23:00,30.7,18.9,29.09,West,270,0.0,0.0,61,0.00,CLR,CLR,0.00,WeatherDisplay:10.37,2013-01-03 12:23:00,
2013-01-03 06:28:00,30.7,18.9,29.09,WNW,292,0.0,0.0,61,0.00,CLR,CLR,0.00,WeatherDisplay:10.37,2013-01-03 12:28:00,
2013-01-03 06:33:00,30.6,18.3,29.09,WNW,292,0.0,0.0,60,0.00,CLR,CLR,0.00,WeatherDisplay:10.37,2013-01-03 12:33:00,
2013-01-03 06:38:00,30.6,18.3,29.09,WNW,292,0.0,0.0,60,0.00,CLR,CLR,0.00,WeatherDisplay:10.37,2013-01-03 12:38:00,
2013-01-03 06:43:00,30.6,18.3,29.09,West,270,0.0,0.0,60,0.00,CLR,CLR,0.00,WeatherDisplay:10.37,2013-01-03 12:43:00,
2013-01-03 06:48:00,30.6,18.7,29.09,WNW,292,0.0,0.0,61,0.00,CLR,CLR,0.00,WeatherDisplay:10.37,2013-01-03 12:48:00,
2013-01-03 06:53:00,30.6,18.7,29.09,WNW,292,0.0,0.0,61,0.00,CLR,CLR,0.00,WeatherDisplay:10.37,2013-01-03 12:53:00,
2013-01-03 06:58:00,30.6,18.7,29.09,West,270,0.0,0.0,61,0.00,CLR,CLR,0.00,WeatherDisplay:10.37,2013-01-03 12:58:00,
2013-01-03 07:03:00,30.6,19.1,29.09,West,270,0.0,0.0,62,0.00,CLR,CLR,0.00,WeatherDisplay:10.37,2013-01-03 13:03:00,
2013-01-03 07:08:00,30.6,19.1,29.09,West,270,2.2,0.0,62,0.00,CLR,CLR,0.00,WeatherDisplay:10.37,2013-01-03 13:08:00,
2013-01-03 07:13:00,30.7,19.2,29.09,West,270,0.0,0.0,62,0.00,CLR,CLR,0.00,WeatherDisplay:10.37,2013-01-03 13:13:00,
2013-01-03 07:18:00,30.7,19.6,29.09,West,270,0.0,0.0,63,0.00,CLR,CLR,0.00,WeatherDisplay:10.37,2013-01-03 13:18:00,
2013-01-03 07:23:00,30.9,20.2,29.09,West,270,0.0,0.0,64,0.00,CLR,CLR,0.00,WeatherDisplay:10.37,2013-01-03 13:23:00,
2013-01-03 07:28:00,30.9,20.2,29.09,West,270,0.0,0.0,64,0.00,CLR,CLR,0.00,WeatherDisplay:10.37,2013-01-03 13:28:00,
2013-01-03 07:33:00,31.1,20.3,29.09,WNW,292,0.0,0.0,64,0.00,CLR,CLR,0.00,WeatherDisplay:10.37,2013-01-03 13:33:00,
2013-01-03 07:38:00,31.1,20.7,29.09,WNW,292,0.0,0.0,65,0.00,CLR,CLR,0.00,WeatherDisplay:10.37,2013-01-03 13:38:00,
2013-01-03 07:43:00,31.1,20.7,29.09,West,270,0.0,0.0,65,0.00,CLR,CLR,0.00,WeatherDisplay:10.37,2013-01-03 13:43:00,
2013-01-03 07:48:00,31.1,20.7,29.09,West,270,0.0,0.0,65,0.00,CLR,CLR,0.00,WeatherDisplay:10.37,2013-01-03 13:48:00,
2013-01-03 07:53:00,31.1,21.1,29.09,WNW,292,0.0,0.0,66,0.00,CLR,CLR,0.00,WeatherDisplay:10.37,2013-01-03 13:53:00,
2013-01-03 07:58:00,31.3,21.2,29.09,WNW,292,0.0,0.0,66,0.00,CLR,CLR,0.00,WeatherDisplay:10.37,2013-01-03 13:58:00,
2013-01-03 08:03:00,31.1,20.7,29.09,WNW,292,0.0,0.0,65,0.00,CLR,CLR,0.00,WeatherDisplay:10.37,2013-01-03 14:03:00,
2013-01-03 08:08:00,31.1,20.7,29.09,WNW,292,0.0,0.0,65,0.00,CLR,CLR,0.00,WeatherDisplay:10.37,2013-01-03 14:08:00,
2013-01-03 08:13:00,30.9,20.2,29.09,West,270,0.0,0.0,64,0.00,CLR,CLR,0.00,WeatherDisplay:10.37,2013-01-03 14:13:00,
2013-01-03 08:18:00,30.7,19.6,29.09,WNW,292,0.0,0.0,63,0.00,CLR,CLR,0.00,WeatherDisplay:10.37,2013-01-03 14:18:00,
2013-01-03 08:23:00,30.7,19.6,29.09,WNW,292,0.0,0.0,63,0.00,CLR,CLR,0.00,WeatherDisplay:10.37,2013-01-03 14:23:00,
2013-01-03 08:28:00,30.6,19.1,29.09,NNW,338,2.6,0.0,62,0.00,CLR,CLR,0.00,WeatherDisplay:10.37,2013-01-03 14:28:00,
2013-01-03 08:33:00,29.7,18.6,29.12,NW,315,2.6,0.0,63,0.00,CLR,CLR,0.00,WeatherDisplay:10.37,2013-01-03 14:33:00,
2013-01-03 08:38:00,29.3,19.3,29.12,NW,315,0.0,0.0,66,0.00,CLR,CLR,0.00,WeatherDisplay:10.37,2013-01-03 14:38:00,
2013-01-03 08:43:00,29.3,20.0,29.12,NNW,338,3.6,0.0,68,0.00,CLR,CLR,0.00,WeatherDisplay:10.37,2013-01-03 14:43:00,
2013-01-03 08:48:00,29.5,20.6,29.12,NW,315,2.3,0.0,69,0.00,CLR,CLR,0.00,WeatherDisplay:10.37,2013-01-03 14:48:00,
2013-01-03 08:53:00,30.0,21.8,29.12,NNW,338,6.9,6.9,71,0.00,CLR,CLR,0.00,WeatherDisplay:10.37,2013-01-03 14:53:00,
2013-01-03 08:58:00,30.2,21.9,29.12,NNW,338,0.0,0.0,71,0.00,CLR,CLR,0.00,WeatherDisplay:10.37,2013-01-03 14:58:00,
2013-01-03 09:03:00,30.4,22.1,29.12,NNW,338,0.0,0.0,71,0.00,CLR,CLR,0.00,WeatherDisplay:10.37,2013-01-03 15:03:00,
2013-01-03 09:08:00,30.2,22.3,29.12,NW,315,2.6,0.0,72,0.00,CLR,CLR,0.00,WeatherDisplay:10.37,2013-01-03 15:08:00,
2013-01-03 09:13:00,29.7,21.4,29.12,NW,315,0.0,0.0,71,0.00,CLR,CLR,0.00,WeatherDisplay:10.37,2013-01-03 15:13:00,
2013-01-03 09:18:00,29.3,20.7,29.15,NW,315,0.0,0.0,70,0.00,CLR,CLR,0.00,WeatherDisplay:10.37,2013-01-03 15:18:00,
2013-01-03 09:23:00,28.8,19.9,29.15,NNW,338,2.2,0.0,69,0.00,CLR,CLR,0.00,WeatherDisplay:10.37,2013-01-03 15:23:00,
2013-01-03 09:28:00,28.4,19.2,29.15,NW,315,0.0,0.0,68,0.00,CLR,CLR,0.00,WeatherDisplay:10.37,2013-01-03 15:28:00,
2013-01-03 09:33:00,28.2,19.0,29.15,NW,315,0.0,0.0,68,0.00,CLR,CLR,0.00,WeatherDisplay:10.37,2013-01-03 15:33:00,
2013-01-03 09:38:00,28.0,18.5,29.15,NW,315,0.0,0.0,67,0.00,CLR,CLR,0.00,WeatherDisplay:10.37,2013-01-03 15:38:00,
2013-01-03 09:43:00,27.9,18.3,29.15,NNW,338,0.0,0.0,67,0.00,CLR,CLR,0.00,WeatherDisplay:10.37,2013-01-03 15:43:00,
2013-01-03 09:48:00,27.9,18.0,29.15,NW,315,0.0,0.0,66,0.00,CLR,CLR,0.00,WeatherDisplay:10.37,2013-01-03 15:48:00,
2013-01-03 09:53:00,27.9,18.0,29.15,NNW,338,0.0,0.0,66,0.00,CLR,CLR,0.00,WeatherDisplay:10.37,2013-01-03 15:53:00,
2013-01-03 09:58:00,27.9,18.0,29.15,NW,315,0.0,0.0,66,0.00,CLR,CLR,0.00,WeatherDisplay:10.37,2013-01-03 15:58:00,
2013-01-03 10:04:00,27.1,16.6,29.18,NW,315,0.0,0.0,64,0.00,CLR,CLR,0.00,WeatherDisplay:10.37,2013-01-03 16:04:00,
2013-01-03 10:09:00,26.6,15.7,29.18,NW,315,0.0,0.0,63,0.00,CLR,CLR,0.00,WeatherDisplay:10.37,2013-01-03 16:09:00,
2013-01-03 10:14:00,26.6,15.3,29.18,NW,315,0.0,0.0,62,0.00,CLR,CLR,0.00,WeatherDisplay:10.37,2013-01-03 16:14:00,
2013-01-03 10:19:00,26.4,14.4,29.18,NW,315,0.0,0.0,60,0.00,CLR,CLR,0.00,WeatherDisplay:10.37,2013-01-03 16:19:00,
2013-01-03 10:24:00,26.1,13.7,29.18,NW,315,0.0,0.0,59,0.00,CLR,CLR,0.00,WeatherDisplay:10.37,2013-01-03 16:24:00,
2013-01-03 10:29:00,25.5,12.8,29.18,NNW,338,3.6,0.0,58,0.00,CLR,CLR,0.00,WeatherDisplay:10.37,2013-01-03 16:29:00,
2013-01-03 10:34:00,25.3,12.2,29.18,NW,315,2.3,0.0,57,0.00,CLR,CLR,0.00,WeatherDisplay:10.37,2013-01-03 16:34:00,
2013-01-03 10:40:00,25.2,12.0,29.18,NNW,338,4.6,0.0,57,0.00,CLR,CLR,0.00,WeatherDisplay:10.37,2013-01-03 16:40:00,
2013-01-03 10:45:00,24.6,11.5,29.18,North,0,4.6,0.0,57,0.00,CLR,CLR,0.00,WeatherDisplay:10.37,2013-01-03 16:45:00,
2013-01-03 10:50:00,24.4,11.0,29.18,NW,315,0.0,0.0,56,0.00,CLR,CLR,0.00,WeatherDisplay:10.37,2013-01-03 16:50:00,
2013-01-03 10:55:00,24.4,11.0,29.18,NW,315,0.0,0.0,56,0.00,CLR,CLR,0.00,WeatherDisplay:10.37,2013-01-03 16:55:00,
2013-01-03 11:00:00,24.3,10.4,29.18,NW,315,0.0,0.0,55,0.00,CLR,CLR,0.00,WeatherDisplay:10.37,2013-01-03 17:00:00,
2013-01-03 11:05:00,23.5,8.9,29.18,NW,315,2.3,0.0,53,0.00,CLR,CLR,0.00,WeatherDisplay:10.37,2013-01-03 17:05:00,
2013-01-03 11:10:00,23.5,8.5,29.18,NW,315,0.0,0.0,52,0.00,CLR,CLR,0.00,WeatherDisplay:10.37,2013-01-03 17:10:00,
2013-01-03 11:15:00,23.7,7.8,29.18,NW,315,0.0,0.0,50,0.00,CLR,CLR,0.00,WeatherDisplay:10.37,2013-01-03 17:15:00,
2013-01-03 11:20:00,24.6,8.2,29.18,North,0,0.0,0.0,49,0.00,CLR,CLR,0.00,WeatherDisplay:10.37,2013-01-03 17:20:00,
2013-01-03 11:25:00,25.0,8.0,29.18,NNW,338,0.0,0.0,48,0.00,CLR,CLR,0.00,WeatherDisplay:10.37,2013-01-03 17:25:00,
2013-01-03 11:30:00,24.8,7.4,29.18,NW,315,0.0,0.0,47,0.00,CLR,CLR,0.00,WeatherDisplay:10.37,2013-01-03 17:30:00,
2013-01-03 11:35:00,24.3,6.4,29.18,NNW,338,0.0,0.0,46,0.00,CLR,CLR,0.00,WeatherDisplay:10.37,2013-01-03 17:35:00,
2013-01-03 11:40:00,24.4,6.6,29.18,WNW,292,0.0,0.0,46,0.00,CLR,CLR,0.00,WeatherDisplay:10.37,2013-01-03 17:40:00,
2013-01-03 11:45:00,25.0,7.1,29.18,NW,315,0.0,0.0,46,0.00,CLR,CLR,0.00,WeatherDisplay:10.37,2013-01-03 17:45:00,
2013-01-03 11:50:00,24.4,6.6,29.18,NW,315,0.0,0.0,46,0.00,CLR,CLR,0.00,WeatherDisplay:10.37,2013-01-03 17:50:00,
2013-01-03 11:55:00,24.4,6.6,29.18,NW,315,0.0,0.0,46,0.00,CLR,CLR,0.00,WeatherDisplay:10.37,2013-01-03 17:55:00,
2013-01-03 12:00:00,24.4,6.6,29.18,NNW,338,0.0,0.0,46,0.00,CLR,CLR,0.00,WeatherDisplay:10.37,2013-01-03 18:00:00,
2013-01-03 12:05:00,24.4,6.6,29.18,NNW,338,0.0,0.0,46,0.00,CLR,CLR,0.00,WeatherDisplay:10.37,2013-01-03 18:05:00,
2013-01-03 12:10:00,24.8,6.9,29.18,North,0,0.0,0.0,46,0.00,CLR,CLR,0.00,WeatherDisplay:10.37,2013-01-03 18:10:00,
2013-01-03 12:15:00,25.0,6.6,29.15,West,270,0.0,0.0,45,0.00,CLR,CLR,0.00,WeatherDisplay:10.37,2013-01-03 18:15:00,
2013-01-03 12:20:00,25.3,6.9,29.15,WNW,292,0.0,0.0,45,0.00,CLR,CLR,0.00,WeatherDisplay:10.37,2013-01-03 18:20:00,
2013-01-03 12:25:00,25.3,6.9,29.15,NW,315,0.0,0.0,45,0.00,CLR,CLR,0.00,WeatherDisplay:10.37,2013-01-03 18:25:00,
2013-01-03 12:30:00,25.3,6.9,29.18,NW,315,0.0,0.0,45,0.00,CLR,CLR,0.00,WeatherDisplay:10.37,2013-01-03 18:30:00,
2013-01-03 12:35:00,25.3,6.9,29.18,NW,315,0.0,0.0,45,0.00,CLR,CLR,0.00,WeatherDisplay:10.37,2013-01-03 18:35:00,
2013-01-03 12:40:00,25.3,6.9,29.18,NW,315,0.0,0.0,45,0.00,CLR,CLR,0.00,WeatherDisplay:10.37,2013-01-03 18:40:00,
2013-01-03 12:46:00,25.9,7.4,29.15,NW,315,0.0,0.0,45,0.00,CLR,CLR,0.00,WeatherDisplay:10.37,2013-01-03 18:46:00,
2013-01-03 12:51:00,25.9,7.4,29.15,NW,315,0.0,0.0,45,0.00,CLR,CLR,0.00,WeatherDisplay:10.37,2013-01-03 18:51:00,
2013-01-03 12:56:00,26.1,7.6,29.15,WNW,292,0.0,0.0,45,0.00,CLR,CLR,0.00,WeatherDisplay:10.37,2013-01-03 18:56:00,
2013-01-03 13:01:00,25.7,7.3,29.15,North,0,0.0,0.0,45,0.00,CLR,CLR,0.00,WeatherDisplay:10.37,2013-01-03 19:01:00,
2013-01-03 13:06:00,25.9,7.4,29.15,NNE,22,0.0,0.0,45,0.00,CLR,CLR,0.00,WeatherDisplay:10.37,2013-01-03 19:06:00,
2013-01-03 13:11:00,25.5,7.1,29.15,NNE,22,0.0,0.0,45,0.00,CLR,CLR,0.00,WeatherDisplay:10.37,2013-01-03 19:11:00,
2013-01-03 13:16:00,25.3,7.4,29.15,NNE,22,0.0,0.0,46,0.00,CLR,CLR,0.00,WeatherDisplay:10.37,2013-01-03 19:16:00,
2013-01-03 13:56:00,27.0,8.4,29.15,NNE,22,0.0,0.0,45,0.00,CLR,CLR,0.00,WeatherDisplay:10.37,2013-01-03 19:56:00,
2013-01-03 14:01:00,26.8,8.2,29.15,West,270,0.0,0.0,45,0.00,CLR,CLR,0.00,WeatherDisplay:10.37,2013-01-03 20:01:00,
2013-01-03 14:06:00,27.1,8.6,29.15,West,270,0.0,0.0,45,0.00,CLR,CLR,0.00,WeatherDisplay:10.37,2013-01-03 20:06:00,
2013-01-03 14:11:00,27.5,8.9,29.15,WSW,248,0.0,0.0,45,0.00,CLR,CLR,0.00,WeatherDisplay:10.37,2013-01-03 20:11:00,
2013-01-03 14:16:00,26.1,7.6,29.15,WSW,248,0.0,0.0,45,0.00,CLR,CLR,0.00,WeatherDisplay:10.37,2013-01-03 20:16:00,
2013-01-03 14:21:00,26.6,8.6,29.15,West,270,0.0,0.0,46,0.00,CLR,CLR,0.00,WeatherDisplay:10.37,2013-01-03 20:21:00,
2013-01-03 14:26:00,27.0,8.9,29.15,West,270,0.0,0.0,46,0.00,CLR,CLR,0.00,WeatherDisplay:10.37,2013-01-03 20:26:00,
2013-01-03 14:31:00,27.5,9.4,29.12,West,270,0.0,0.0,46,0.00,CLR,CLR,0.00,WeatherDisplay:10.37,2013-01-03 20:31:00,
2013-01-03 14:36:00,27.0,8.9,29.12,West,270,0.0,0.0,46,0.00,CLR,CLR,0.00,WeatherDisplay:10.37,2013-01-03 20:36:00,
2013-01-03 14:41:00,27.1,9.1,29.12,West,270,0.0,0.0,46,0.00,CLR,CLR,0.00,WeatherDisplay:10.37,2013-01-03 20:41:00,
2013-01-03 14:46:00,27.0,8.9,29.15,West,270,0.0,0.0,46,0.00,CLR,CLR,0.00,WeatherDisplay:10.37,2013-01-03 20:46:00,
2013-01-03 14:51:00,27.1,9.1,29.15,West,270,0.0,0.0,46,0.00,CLR,CLR,0.00,WeatherDisplay:10.37,2013-01-03 20:51:00,
2013-01-03 14:56:00,27.0,8.9,29.15,WNW,292,0.0,0.0,46,0.00,CLR,CLR,0.00,WeatherDisplay:10.37,2013-01-03 20:56:00,
2013-01-03 15:01:00,27.0,9.4,29.15,WNW,292,0.0,0.0,47,0.00,CLR,CLR,0.00,WeatherDisplay:10.37,2013-01-03 21:01:00,
2013-01-03 15:06:00,27.3,9.7,29.15,WSW,248,0.0,0.0,47,0.00,CLR,CLR,0.00,WeatherDisplay:10.37,2013-01-03 21:06:00,
2013-01-03 15:11:00,26.6,9.1,29.15,WSW,248,0.0,0.0,47,0.00,CLR,CLR,0.00,WeatherDisplay:10.37,2013-01-03 21:11:00,
2013-01-03 15:16:00,26.6,9.5,29.15,SW,225,0.0,0.0,48,0.00,CLR,CLR,0.00,WeatherDisplay:10.37,2013-01-03 21:16:00,
2013-01-03 15:21:00,27.0,9.9,29.15,SW,225,0.0,0.0,48,0.00,CLR,CLR,0.00,WeatherDisplay:10.37,2013-01-03 21:21:00,
2013-01-03 15:26:00,27.0,9.9,29.15,SW,225,0.0,0.0,48,0.00,CLR,CLR,0.00,WeatherDisplay:10.37,2013-01-03 21:26:00,
2013-01-03 15:31:00,26.8,9.2,29.15,SW,225,0.0,0.0,47,0.00,CLR,CLR,0.00,WeatherDisplay:10.37,2013-01-03 21:31:00,
2013-01-03 15:36:00,26.8,9.2,29.15,WNW,292,0.0,0.0,47,0.00,CLR,CLR,0.00,WeatherDisplay:10.37,2013-01-03 21:36:00,
2013-01-03 15:41:00,26.6,9.1,29.15,SW,225,0.0,0.0,47,0.00,CLR,CLR,0.00,WeatherDisplay:10.37,2013-01-03 21:41:00,
2013-01-03 15:46:00,26.8,9.2,29.12,WSW,248,0.0,0.0,47,0.00,CLR,CLR,0.00,WeatherDisplay:10.37,2013-01-03 21:46:00,
2013-01-03 15:52:00,26.2,8.7,29.12,West,270,0.0,0.0,47,0.00,CLR,CLR,0.00,WeatherDisplay:10.37,2013-01-03 21:52:00,
2013-01-03 15:57:00,26.2,8.7,29.12,West,270,0.0,0.0,47,0.00,CLR,CLR,0.00,WeatherDisplay:10.37,2013-01-03 21:57:00,
2013-01-03 16:02:00,26.4,9.4,29.12,WSW,248,0.0,0.0,48,0.00,CLR,CLR,0.00,WeatherDisplay:10.37,2013-01-03 22:02:00,
2013-01-03 16:07:00,26.4,9.4,29.12,SW,225,0.0,0.0,48,0.00,CLR,CLR,0.00,WeatherDisplay:10.37,2013-01-03 22:07:00,
2013-01-03 16:12:00,26.8,9.2,29.12,SW,225,0.0,0.0,47,0.00,CLR,CLR,0.00,WeatherDisplay:10.37,2013-01-03 22:12:00,
2013-01-03 16:18:00,26.8,8.7,29.12,WNW,292,0.0,0.0,46,0.00,CLR,CLR,0.00,WeatherDisplay:10.37,2013-01-03 22:18:00,
2013-01-03 16:23:00,26.6,9.1,29.12,WNW,292,0.0,0.0,47,0.00,CLR,CLR,0.00,WeatherDisplay:10.37,2013-01-03 22:23:00,
2013-01-03 16:28:00,27.0,8.9,29.12,West,270,0.0,0.0,46,0.00,CLR,CLR,0.00,WeatherDisplay:10.37,2013-01-03 22:28:00,
2013-01-03 16:33:00,27.0,8.9,29.12,West,270,0.0,0.0,46,0.00,CLR,CLR,0.00,WeatherDisplay:10.37,2013-01-03 22:33:00,
2013-01-03 16:38:00,27.3,9.2,29.12,West,270,0.0,0.0,46,0.00,CLR,CLR,0.00,WeatherDisplay:10.37,2013-01-03 22:38:00,
2013-01-03 16:43:00,27.0,8.9,29.12,West,270,0.0,0.0,46,0.00,CLR,CLR,0.00,WeatherDisplay:10.37,2013-01-03 22:43:00,
2013-01-03 16:48:00,26.8,8.7,29.12,West,270,0.0,0.0,46,0.00,CLR,CLR,0.00,WeatherDisplay:10.37,2013-01-03 22:48:00,
2013-01-03 16:53:00,26.8,8.7,29.12,West,270,0.0,0.0,46,0.00,CLR,CLR,0.00,WeatherDisplay:10.37,2013-01-03 22:53:00,
2013-01-03 16:58:00,26.1,8.6,29.12,West,270,0.0,0.0,47,0.00,CLR,CLR,0.00,WeatherDisplay:10.37,2013-01-03 22:58:00,
2013-01-03 17:03:00,26.1,9.0,29.12,West,270,0.0,0.0,48,0.00,CLR,CLR,0.00,WeatherDisplay:10.37,2013-01-03 23:03:00,
2013-01-03 17:08:00,25.7,8.7,29.12,West,270,0.0,0.0,48,0.00,CLR,CLR,0.00,WeatherDisplay:10.37,2013-01-03 23:08:00,
2013-01-03 17:13:00,25.3,8.8,29.12,West,270,0.0,0.0,49,0.00,CLR,CLR,0.00,WeatherDisplay:10.37,2013-01-03 23:13:00,
2013-01-03 17:18:00,25.0,9.4,29.12,West,270,0.0,0.0,51,0.00,CLR,CLR,0.00,WeatherDisplay:10.37,2013-01-03 23:18:00,
2013-01-03 17:23:00,24.8,9.6,29.12,West,270,0.0,0.0,52,0.00,CLR,CLR,0.00,WeatherDisplay:10.37,2013-01-03 23:23:00,
2013-01-03 17:28:00,24.4,9.3,29.12,West,270,0.0,0.0,52,0.00,CLR,CLR,0.00,WeatherDisplay:10.37,2013-01-03 23:28:00,
2013-01-03 17:33:00,24.3,9.6,29.12,West,270,0.0,0.0,53,0.00,CLR,CLR,0.00,WeatherDisplay:10.37,2013-01-03 23:33:00,
2013-01-03 17:38:00,24.1,9.4,29.12,West,270,0.0,0.0,53,0.00,CLR,CLR,0.00,WeatherDisplay:10.37,2013-01-03 23:38:00,
2013-01-03 17:43:00,23.7,9.5,29.12,West,270,0.0,0.0,54,0.00,CLR,CLR,0.00,WeatherDisplay:10.37,2013-01-03 23:43:00,
2013-01-03 17:48:00,23.5,9.7,29.12,West,270,0.0,0.0,55,0.00,CLR,CLR,0.00,WeatherDisplay:10.37,2013-01-03 23:48:00,
2013-01-03 17:54:00,23.5,10.1,29.12,West,270,0.0,0.0,56,0.00,CLR,CLR,0.00,WeatherDisplay:10.37,2013-01-03 23:54:00,
2013-01-03 17:59:00,23.0,10.0,29.12,West,270,0.0,0.0,57,0.00,CLR,CLR,0.00,WeatherDisplay:10.37,2013-01-03 23:59:00,
2013-01-03 18:04:00,22.8,10.2,29.12,West,270,0.0,0.0,58,0.00,CLR,CLR,0.00,WeatherDisplay:10.37,2013-01-04 00:04:00,
2013-01-03 18:09:00,22.5,9.9,29.12,West,270,0.0,0.0,58,0.00,CLR,CLR,0.00,WeatherDisplay:10.37,2013-01-04 00:09:00,
2013-01-03 18:14:00,22.5,10.3,29.12,West,270,0.0,0.0,59,0.00,CLR,CLR,0.00,WeatherDisplay:10.37,2013-01-04 00:14:00,
2013-01-03 18:19:00,22.1,10.3,29.12,West,270,0.0,0.0,60,0.00,CLR,CLR,0.00,WeatherDisplay:10.37,2013-01-04 00:19:00,
2013-01-03 18:24:00,21.9,10.5,29.12,West,270,0.0,0.0,61,0.00,CLR,CLR,0.00,WeatherDisplay:10.37,2013-01-04 00:24:00,
2013-01-03 18:29:00,22.1,11.1,29.12,West,270,0.0,0.0,62,0.00,CLR,CLR,0.00,WeatherDisplay:10.37,2013-01-04 00:29:00,
2013-01-03 18:34:00,22.3,11.6,29.15,West,270,0.0,0.0,63,0.00,CLR,CLR,0.00,WeatherDisplay:10.37,2013-01-04 00:34:00,
2013-01-03 18:39:00,22.5,12.1,29.15,West,270,0.0,0.0,64,0.00,CLR,CLR,0.00,WeatherDisplay:10.37,2013-01-04 00:39:00,
2013-01-03 18:44:00,22.8,12.8,29.15,West,270,0.0,0.0,65,0.00,CLR,CLR,0.00,WeatherDisplay:10.37,2013-01-04 00:44:00,
2013-01-03 18:49:00,23.0,13.7,29.12,West,270,0.0,0.0,67,0.00,CLR,CLR,0.00,WeatherDisplay:10.37,2013-01-04 00:49:00,
2013-01-03 18:54:00,23.4,14.0,29.12,West,270,0.0,0.0,67,0.00,CLR,CLR,0.00,WeatherDisplay:10.37,2013-01-04 00:54:00,
2013-01-03 18:59:00,23.7,14.7,29.12,West,270,0.0,0.0,68,0.00,CLR,CLR,0.00,WeatherDisplay:10.37,2013-01-04 00:59:00,
2013-01-03 19:04:00,24.1,15.4,29.12,West,270,0.0,0.0,69,0.00,CLR,CLR,0.00,WeatherDisplay:10.37,2013-01-04 01:04:00,
2013-01-03 19:09:00,24.3,15.5,29.12,West,270,0.0,0.0,69,0.00,CLR,CLR,0.00,WeatherDisplay:10.37,2013-01-04 01:09:00,
2013-01-03 19:14:00,24.3,15.5,29.12,West,270,0.0,0.0,69,0.00,CLR,CLR,0.00,WeatherDisplay:10.37,2013-01-04 01:14:00,
2013-01-03 19:19:00,24.4,15.7,29.12,West,270,0.0,0.0,69,0.00,CLR,CLR,0.00,WeatherDisplay:10.37,2013-01-04 01:19:00,
2013-01-03 19:24:00,24.4,15.7,29.12,West,270,0.0,0.0,69,0.00,CLR,CLR,0.00,WeatherDisplay:10.37,2013-01-04 01:24:00,
2013-01-03 19:29:00,24.4,15.4,29.12,West,270,0.0,0.0,68,0.00,CLR,CLR,0.00,WeatherDisplay:10.37,2013-01-04 01:29:00,
2013-01-03 19:34:00,24.4,15.4,29.12,West,270,0.0,0.0,68,0.00,CLR,CLR,0.00,WeatherDisplay:10.37,2013-01-04 01:34:00,
2013-01-03 19:39:00,24.3,14.9,29.12,West,270,0.0,0.0,67,0.00,CLR,CLR,0.00,WeatherDisplay:10.37,2013-01-04 01:39:00,
2013-01-03 19:44:00,24.1,14.7,29.12,West,270,0.0,0.0,67,0.00,CLR,CLR,0.00,WeatherDisplay:10.37,2013-01-04 01:44:00,
2013-01-03 19:49:00,23.9,14.2,29.12,West,270,0.0,0.0,66,0.00,CLR,CLR,0.00,WeatherDisplay:10.37,2013-01-04 01:49:00,
2013-01-03 19:54:00,23.5,13.8,29.12,West,270,0.0,0.0,66,0.00,CLR,CLR,0.00,WeatherDisplay:10.37,2013-01-04 01:54:00,
2013-01-03 19:59:00,23.5,13.8,29.12,West,270,0.0,0.0,66,0.00,CLR,CLR,0.00,WeatherDisplay:10.37,2013-01-04 01:59:00,
2013-01-03 20:04:00,23.5,14.2,29.12,West,270,0.0,0.0,67,0.00,CLR,CLR,0.00,WeatherDisplay:10.37,2013-01-04 02:04:00,
2013-01-03 20:09:00,23.5,14.2,29.12,West,270,0.0,0.0,67,0.00,CLR,CLR,0.00,WeatherDisplay:10.37,2013-01-04 02:09:00,
2013-01-03 20:14:00,23.5,14.2,29.12,West,270,0.0,0.0,67,0.00,CLR,CLR,0.00,WeatherDisplay:10.37,2013-01-04 02:14:00,
2013-01-03 20:19:00,23.5,14.2,29.12,West,270,0.0,0.0,67,0.00,CLR,CLR,0.00,WeatherDisplay:10.37,2013-01-04 02:19:00,
2013-01-03 20:24:00,23.7,14.4,29.12,West,270,0.0,0.0,67,0.00,CLR,CLR,0.00,WeatherDisplay:10.37,2013-01-04 02:24:00,
2013-01-03 20:29:00,23.7,14.4,29.12,West,270,0.0,0.0,67,0.00,CLR,CLR,0.00,WeatherDisplay:10.37,2013-01-04 02:29:00,
2013-01-03 20:34:00,23.7,14.4,29.12,West,270,0.0,0.0,67,0.00,CLR,CLR,0.00,WeatherDisplay:10.37,2013-01-04 02:34:00,
2013-01-03 20:39:00,23.5,14.2,29.12,West,270,0.0,0.0,67,0.00,CLR,CLR,0.00,WeatherDisplay:10.37,2013-01-04 02:39:00,
2013-01-03 20:44:00,23.5,14.2,29.12,West,270,0.0,0.0,67,0.00,CLR,CLR,0.00,WeatherDisplay:10.37,2013-01-04 02:44:00,
2013-01-03 20:49:00,23.2,13.8,29.12,WSW,248,0.0,0.0,67,0.00,CLR,CLR,0.00,WeatherDisplay:10.37,2013-01-04 02:49:00,
2013-01-03 20:54:00,23.2,13.8,29.12,WSW,248,0.0,0.0,67,0.00,CLR,CLR,0.00,WeatherDisplay:10.37,2013-01-04 02:54:00,
2013-01-03 20:59:00,23.2,13.8,29.12,SW,225,0.0,0.0,67,0.00,CLR,CLR,0.00,WeatherDisplay:10.37,2013-01-04 02:59:00,
2013-01-03 21:04:00,23.0,13.7,29.09,SW,225,0.0,0.0,67,0.00,CLR,CLR,0.00,WeatherDisplay:10.37,2013-01-04 03:04:00,
2013-01-03 21:09:00,23.0,13.7,29.09,SW,225,0.0,0.0,67,0.00,CLR,CLR,0.00,WeatherDisplay:10.37,2013-01-04 03:09:00,
2013-01-03 21:14:00,22.8,13.5,29.09,SW,225,0.0,0.0,67,0.00,CLR,CLR,0.00,WeatherDisplay:10.37,2013-01-04 03:14:00,
2013-01-03 21:19:00,22.6,13.3,29.09,SSW,202,0.0,0.0,67,0.00,CLR,CLR,0.00,WeatherDisplay:10.37,2013-01-04 03:19:00,
2013-01-03 21:24:00,22.5,13.2,29.09,SSW,202,0.0,0.0,67,0.00,CLR,CLR,0.00,WeatherDisplay:10.37,2013-01-04 03:24:00,
2013-01-03 21:29:00,22.5,13.2,29.09,SSW,202,0.0,0.0,67,0.00,CLR,CLR,0.00,WeatherDisplay:10.37,2013-01-04 03:29:00,
2013-01-03 21:34:00,22.3,13.0,29.09,SSW,202,0.0,0.0,67,0.00,CLR,CLR,0.00,WeatherDisplay:10.37,2013-01-04 03:34:00,
2013-01-03 21:39:00,22.3,13.3,29.09,South,180,0.0,0.0,68,0.00,CLR,CLR,0.00,WeatherDisplay:10.37,2013-01-04 03:39:00,
2013-01-03 21:44:00,22.3,13.3,29.09,South,180,0.0,0.0,68,0.00,CLR,CLR,0.00,WeatherDisplay:10.37,2013-01-04 03:44:00,
2013-01-03 21:49:00,22.1,13.1,29.09,SSW,202,0.0,0.0,68,0.00,CLR,CLR,0.00,WeatherDisplay:10.37,2013-01-04 03:49:00,
2013-01-03 21:54:00,21.9,13.3,29.09,SSW,202,0.0,0.0,69,0.00,CLR,CLR,0.00,WeatherDisplay:10.37,2013-01-04 03:54:00,
2013-01-03 21:59:00,21.9,13.3,29.09,SSW,202,0.0,0.0,69,0.00,CLR,CLR,0.00,WeatherDisplay:10.37,2013-01-04 03:59:00,
2013-01-03 22:04:00,21.9,13.3,29.09,SSW,202,0.0,0.0,69,0.00,CLR,CLR,0.00,WeatherDisplay:10.37,2013-01-04 04:04:00,
2013-01-03 22:09:00,22.3,14.0,29.09,SSW,202,0.0,0.0,70,0.00,CLR,CLR,0.00,WeatherDisplay:10.37,2013-01-04 04:09:00,
2013-01-03 22:14:00,22.3,14.0,29.09,SSW,202,0.0,0.0,70,0.00,CLR,CLR,0.00,WeatherDisplay:10.37,2013-01-04 04:14:00,
2013-01-03 22:19:00,22.5,14.5,29.09,SSW,202,0.0,0.0,71,0.00,CLR,CLR,0.00,WeatherDisplay:10.37,2013-01-04 04:19:00,
2013-01-03 22:24:00,22.6,14.6,29.09,SW,225,0.0,0.0,71,0.00,CLR,CLR,0.00,WeatherDisplay:10.37,2013-01-04 04:24:00,
2013-01-03 22:29:00,22.5,14.5,29.09,SSW,202,0.0,0.0,71,0.00,CLR,CLR,0.00,WeatherDisplay:10.37,2013-01-04 04:29:00,
2013-01-03 22:34:00,22.3,14.3,29.09,SSW,202,0.0,0.0,71,0.00,CLR,CLR,0.00,WeatherDisplay:10.37,2013-01-04 04:34:00,
2013-01-03 22:39:00,22.3,14.3,29.09,SSW,202,0.0,0.0,71,0.00,CLR,CLR,0.00,WeatherDisplay:10.37,2013-01-04 04:39:00,
2013-01-03 22:44:00,22.3,14.6,29.09,SSW,202,0.0,0.0,72,0.00,CLR,CLR,0.00,WeatherDisplay:10.37,2013-01-04 04:44:00,
2013-01-03 22:49:00,22.5,14.8,29.09,SSW,202,0.0,0.0,72,0.00,CLR,CLR,0.00,WeatherDisplay:10.37,2013-01-04 04:49:00,
2013-01-03 22:54:00,22.5,14.8,29.09,SSW,202,0.0,0.0,72,0.00,CLR,CLR,0.00,WeatherDisplay:10.37,2013-01-04 04:54:00,
2013-01-03 22:59:00,22.5,15.1,29.09,SSW,202,0.0,0.0,73,0.00,CLR,CLR,0.00,WeatherDisplay:10.37,2013-01-04 04:59:00,
2013-01-03 23:03:00,22.5,15.1,29.09,SSW,202,0.0,0.0,73,0.00,CLR,CLR,0.00,WeatherDisplay:10.37,2013-01-04 05:03:00,
2013-01-03 23:04:00,22.6,15.3,29.09,SSW,202,0.0,0.0,73,0.00,CLR,CLR,0.00,WeatherDisplay:10.37,2013-01-04 05:04:00,
2013-01-03 23:05:00,22.6,15.3,29.09,SSW,202,0.0,0.0,73,0.00,CLR,CLR,0.00,WeatherDisplay:10.37,2013-01-04 05:05:00,
2013-01-03 23:11:00,22.8,15.8,29.09,SSW,202,0.0,0.0,74,0.00,CLR,CLR,0.00,WeatherDisplay:10.37,2013-01-04 05:11:00,
2013-01-03 23:16:00,22.8,15.8,29.09,SSW,202,0.0,0.0,74,0.00,CLR,CLR,0.00,WeatherDisplay:10.37,2013-01-04 05:16:00,
2013-01-03 23:21:00,22.6,15.6,29.09,SSW,202,0.0,0.0,74,0.00,CLR,CLR,0.00,WeatherDisplay:10.37,2013-01-04 05:21:00,
2013-01-03 23:26:00,22.8,16.1,29.09,SSW,202,0.0,0.0,75,0.00,CLR,CLR,0.00,WeatherDisplay:10.37,2013-01-04 05:26:00,
2013-01-03 23:31:00,22.8,16.1,29.09,SSW,202,0.0,0.0,75,0.00,CLR,CLR,0.00,WeatherDisplay:10.37,2013-01-04 05:31:00,
2013-01-03 23:36:00,23.0,16.3,29.09,SSW,202,0.0,0.0,75,0.00,CLR,CLR,0.00,WeatherDisplay:10.37,2013-01-04 05:36:00,
2013-01-03 23:41:00,23.2,16.4,29.09,SSW,202,0.0,0.0,75,0.00,CLR,CLR,0.00,WeatherDisplay:10.37,2013-01-04 05:41:00,
2013-01-03 23:46:00,23.5,17.1,29.09,SSW,202,0.0,0.0,76,0.00,CLR,CLR,0.00,WeatherDisplay:10.37,2013-01-04 05:46:00,
2013-01-03 23:51:00,23.7,17.3,29.09,SSW,202,0.0,0.0,76,0.00,CLR,CLR,0.00,WeatherDisplay:10.37,2013-01-04 05:51:00,
2013-01-03 23:56:00,23.9,17.4,29.09,SSW,202,0.0,0.0,76,0.00,CLR,CLR,0.00,WeatherDisplay:10.37,2013-01-04 05:56:00,